Time;durP1;ratioP1;P1;durP2;ratioP2;P2;SDS_P1;SDS_P2;PMS_P1;PMS_P2;Temp;Humidity;BMP_temperature;BMP_pressure;BME280_temperature;BME280_humidity;BME280_pressure;Samples;Min_cycle;Max_cycle;Signal;HPM_P1;HPM_P2
2021/01/08 00:00:08;;;;;;;19.45;6.78;;;2.80;93.80;;;;;;4991490;28;20082;-53
2021/01/08 00:02:34;;;;;;;19.63;6.28;;;2.80;93.90;;;;;;4992230;28;20046;-54
2021/01/08 00:05:00;;;;;;;15.98;6.45;;;2.80;93.90;;;;;;4993348;28;20050;-53
2021/01/08 00:07:26;;;;;;;18.52;6.57;;;2.80;93.80;;;;;;4998666;28;20049;-53
2021/01/08 00:09:52;;;;;;;11.23;6.63;;;2.90;93.90;;;;;;4980437;28;20057;-54
2021/01/08 00:12:18;;;;;;;24.58;6.80;;;2.80;93.90;;;;;;4984900;28;20447;-55
2021/01/08 00:14:43;;;;;;;14.73;6.45;;;2.80;93.90;;;;;;4991310;28;20034;-55
2021/01/08 00:17:09;;;;;;;12.98;7.03;;;2.90;93.90;;;;;;4991734;28;20038;-55
2021/01/08 00:19:34;;;;;;;13.13;6.35;;;2.90;93.90;;;;;;4986292;28;20414;-56
2021/01/08 00:22:00;;;;;;;13.80;6.63;;;2.90;94.00;;;;;;4981422;28;20039;-55
2021/01/08 00:24:26;;;;;;;11.55;6.93;;;2.80;93.90;;;;;;4992661;28;20062;-55
2021/01/08 00:26:54;;;;;;;14.00;7.18;;;2.90;94.00;;;;;;4983284;28;20039;-55
2021/01/08 00:29:20;;;;;;;11.52;6.38;;;2.90;93.90;;;;;;4993165;28;20128;-55
2021/01/08 00:31:47;;;;;;;12.70;6.07;;;2.90;94.00;;;;;;4986100;28;20060;-55
2021/01/08 00:34:17;;;;;;;9.68;5.97;;;2.80;93.90;;;;;;4984874;28;20422;-55
2021/01/08 00:36:51;;;;;;;13.43;6.90;;;2.90;93.90;;;;;;4994137;28;20120;-55
2021/01/08 00:39:18;;;;;;;9.73;6.00;;;2.80;93.90;;;;;;4980513;28;20038;-55
2021/01/08 00:41:44;;;;;;;11.13;6.25;;;2.80;93.90;;;;;;4996346;28;20057;-54
2021/01/08 00:44:10;;;;;;;9.80;6.40;;;2.80;94.20;;;;;;4988220;28;20042;-55
2021/01/08 00:46:37;;;;;;;12.20;6.65;;;2.80;94.20;;;;;;4985342;28;20098;-54
2021/01/08 00:49:04;;;;;;;10.93;5.82;;;2.80;94.00;;;;;;4989188;28;20042;-55
2021/01/08 00:51:32;;;;;;;8.60;5.85;;;2.80;94.10;;;;;;4978016;28;20101;-54
2021/01/08 00:53:59;;;;;;;10.52;6.47;;;2.80;94.00;;;;;;4984251;28;20054;-55
2021/01/08 00:56:24;;;;;;;10.13;6.32;;;2.80;94.00;;;;;;4985470;28;20074;-55
2021/01/08 00:58:50;;;;;;;11.15;7.18;;;2.90;94.10;;;;;;4990226;28;20077;-54
2021/01/08 01:01:16;;;;;;;11.80;6.72;;;2.90;94.10;;;;;;4981337;28;20047;-55
2021/01/08 01:03:42;;;;;;;10.02;6.05;;;2.90;94.00;;;;;;4989608;28;20054;-55
2021/01/08 01:06:08;;;;;;;10.45;6.43;;;2.90;94.00;;;;;;4995157;28;20046;-55
2021/01/08 01:08:34;;;;;;;9.68;6.40;;;2.90;94.00;;;;;;4994506;28;20042;-55
2021/01/08 01:11:00;;;;;;;10.93;6.50;;;2.80;94.00;;;;;;4971347;28;20053;-54
2021/01/08 01:13:27;;;;;;;14.35;7.00;;;2.80;94.00;;;;;;4986575;28;20067;-55
2021/01/08 01:15:52;;;;;;;10.27;6.60;;;2.80;94.00;;;;;;4981029;28;20125;-55
2021/01/08 01:18:19;;;;;;;9.65;6.22;;;2.80;94.00;;;;;;4992605;28;20575;-55
2021/01/08 01:20:45;;;;;;;9.63;6.47;;;2.80;94.10;;;;;;4959819;28;20046;-55
2021/01/08 01:23:11;;;;;;;10.90;6.28;;;2.80;94.00;;;;;;4991378;28;20065;-56
2021/01/08 01:25:37;;;;;;;11.52;6.57;;;2.70;94.10;;;;;;4980532;28;20486;-54
2021/01/08 01:28:03;;;;;;;9.90;6.55;;;2.70;94.10;;;;;;4996171;28;20042;-55
2021/01/08 01:30:29;;;;;;;12.10;6.30;;;2.70;94.10;;;;;;4982407;28;20518;-55
2021/01/08 01:32:54;;;;;;;11.02;6.80;;;2.70;94.10;;;;;;4979128;28;20042;-55
2021/01/08 01:35:20;;;;;;;10.30;6.50;;;2.80;94.10;;;;;;4987890;28;20100;-55
2021/01/08 01:37:46;;;;;;;10.15;6.68;;;2.70;94.10;;;;;;4992770;28;20050;-55
2021/01/08 01:40:12;;;;;;;11.23;6.63;;;2.70;94.10;;;;;;4994528;28;20395;-55
2021/01/08 01:42:38;;;;;;;11.02;6.80;;;2.70;94.10;;;;;;4990815;28;20412;-55
2021/01/08 01:45:04;;;;;;;9.95;6.50;;;2.70;94.10;;;;;;4985447;28;20261;-55
2021/01/08 01:47:30;;;;;;;10.52;6.25;;;2.70;94.10;;;;;;4984663;28;20086;-55
2021/01/08 01:49:56;;;;;;;10.38;6.45;;;2.70;94.00;;;;;;4978152;28;20340;-55
2021/01/08 01:52:22;;;;;;;8.98;6.05;;;2.70;94.00;;;;;;4977270;28;20054;-55
2021/01/08 01:54:48;;;;;;;9.15;6.10;;;2.70;94.00;;;;;;4985395;28;20419;-55
2021/01/08 01:57:14;;;;;;;9.13;6.07;;;2.60;94.00;;;;;;4979865;28;20038;-54
2021/01/08 01:59:40;;;;;;;9.32;5.97;;;2.60;93.90;;;;;;4975081;28;20041;-53
2021/01/08 02:02:33;;;;;;;10.50;6.40;;;2.60;93.90;;;;;;4990824;28;20045;-55
2021/01/08 02:05:03;;;;;;;9.38;6.22;;;2.50;94.00;;;;;;4981734;28;20038;-55
2021/01/08 02:07:33;;;;;;;9.88;6.10;;;2.50;94.00;;;;;;4980942;28;20049;-54
2021/01/08 02:10:02;;;;;;;10.95;6.28;;;2.50;94.00;;;;;;4990474;28;20140;-56
2021/01/08 02:12:29;;;;;;;14.05;6.13;;;2.50;94.00;;;;;;4979960;28;20517;-55
2021/01/08 02:14:56;;;;;;;9.05;5.60;;;2.50;94.00;;;;;;4991864;28;20035;-56
2021/01/08 02:17:24;;;;;;;8.63;5.90;;;2.40;94.00;;;;;;4983597;28;20038;-55
2021/01/08 02:19:56;;;;;;;8.82;5.63;;;2.40;94.00;;;;;;4987256;28;20034;-55
2021/01/08 02:22:46;;;;;;;10.23;5.47;;;2.30;94.00;;;;;;4991502;28;20423;-54
2021/01/08 02:25:18;;;;;;;8.20;5.13;;;2.30;94.00;;;;;;4981086;28;20042;-54
2021/01/08 02:28:08;;;;;;;7.40;5.20;;;2.30;93.90;;;;;;4990949;28;20054;-55
2021/01/08 02:30:36;;;;;;;8.23;4.97;;;2.30;94.00;;;;;;4984694;28;20039;-55
2021/01/08 02:33:03;;;;;;;9.35;5.45;;;2.30;93.90;;;;;;4981653;28;20050;-55
2021/01/08 02:35:32;;;;;;;8.05;5.60;;;2.30;93.90;;;;;;4980784;28;20065;-55
2021/01/08 02:37:58;;;;;;;9.18;6.03;;;2.30;93.90;;;;;;4975728;28;20038;-55
2021/01/08 02:40:25;;;;;;;7.63;5.28;;;2.20;93.90;;;;;;4979720;28;20478;-53
2021/01/08 02:42:57;;;;;;;9.85;5.30;;;2.20;93.90;;;;;;4980704;28;20479;-53
2021/01/08 02:45:22;;;;;;;8.38;5.55;;;2.30;94.00;;;;;;4979700;28;20038;-51
2021/01/08 02:47:48;;;;;;;8.55;5.50;;;2.20;94.00;;;;;;4982268;28;20411;-52
2021/01/08 02:50:14;;;;;;;7.45;4.65;;;2.20;94.00;;;;;;4982920;28;20038;-54
2021/01/08 02:52:45;;;;;;;9.77;5.82;;;2.30;94.00;;;;;;4978735;28;20051;-49
2021/01/08 02:55:13;;;;;;;7.53;4.93;;;2.20;94.00;;;;;;4961439;28;20041;-55
2021/01/08 02:57:41;;;;;;;9.60;5.40;;;2.30;94.10;;;;;;4976850;28;20471;-51
2021/01/08 03:00:08;;;;;;;10.20;5.75;;;2.30;94.10;;;;;;4980072;28;20488;-54
2021/01/08 03:02:34;;;;;;;11.35;6.13;;;2.30;94.10;;;;;;4975777;28;20114;-53
2021/01/08 03:05:01;;;;;;;8.43;5.65;;;2.30;94.20;;;;;;4973365;28;20057;-54
2021/01/08 03:07:27;;;;;;;8.80;5.50;;;2.30;94.10;;;;;;4973663;28;20512;-53
2021/01/08 03:09:52;;;;;;;7.25;4.97;;;2.30;94.10;;;;;;4977438;28;20114;-52
2021/01/08 03:12:19;;;;;;;10.10;5.50;;;2.30;94.10;;;;;;4971783;28;20070;-54
2021/01/08 03:14:46;;;;;;;8.13;5.38;;;2.30;94.10;;;;;;4980124;28;20038;-51
2021/01/08 03:17:12;;;;;;;9.15;5.50;;;2.30;94.10;;;;;;4992806;28;20125;-54
2021/01/08 03:19:38;;;;;;;8.23;5.10;;;2.30;94.10;;;;;;4987898;28;20129;-55
2021/01/08 03:22:04;;;;;;;8.48;5.38;;;2.40;94.10;;;;;;4979159;28;20539;-54
2021/01/08 03:24:30;;;;;;;8.27;5.35;;;2.30;94.10;;;;;;4987145;28;20069;-52
2021/01/08 03:26:57;;;;;;;8.27;5.60;;;2.30;94.20;;;;;;4987338;28;20042;-53
2021/01/08 03:29:23;;;;;;;9.63;5.45;;;2.30;94.20;;;;;;4989099;28;20097;-51
2021/01/08 03:31:49;;;;;;;7.78;5.35;;;2.30;94.20;;;;;;4991810;28;20042;-52
2021/01/08 03:34:14;;;;;;;10.35;5.80;;;2.30;94.20;;;;;;4983977;28;20047;-53
2021/01/08 03:36:41;;;;;;;9.30;5.32;;;2.30;94.20;;;;;;4976095;28;20039;-54
2021/01/08 03:39:07;;;;;;;7.70;5.40;;;2.30;94.20;;;;;;4950653;28;20121;-56
2021/01/08 03:41:33;;;;;;;7.22;4.95;;;2.30;94.30;;;;;;4988955;28;20291;-54
2021/01/08 03:43:59;;;;;;;7.85;5.13;;;2.30;94.30;;;;;;4980995;28;20049;-52
2021/01/08 03:46:24;;;;;;;7.78;5.03;;;2.40;94.30;;;;;;4991708;28;20043;-55
2021/01/08 03:48:50;;;;;;;9.30;5.55;;;2.40;94.30;;;;;;4975416;28;20053;-54
2021/01/08 03:51:16;;;;;;;9.50;5.53;;;2.40;94.30;;;;;;4979143;28;20129;-49
2021/01/08 03:53:42;;;;;;;8.10;5.75;;;2.40;94.30;;;;;;4977310;28;20089;-55
2021/01/08 03:56:07;;;;;;;7.72;4.78;;;2.40;94.30;;;;;;4984166;28;20046;-55
2021/01/08 03:58:33;;;;;;;8.82;5.45;;;2.40;94.20;;;;;;4965007;28;20109;-55
2021/01/08 04:00:59;;;;;;;7.30;5.38;;;2.40;94.20;;;;;;4992235;28;20092;-55
2021/01/08 04:03:25;;;;;;;6.72;4.80;;;2.40;94.20;;;;;;4979172;28;20034;-55
2021/01/08 04:05:54;;;;;;;6.40;4.53;;;2.40;94.10;;;;;;4977850;28;20042;-49
2021/01/08 04:08:20;;;;;;;7.00;4.70;;;2.40;94.20;;;;;;4991151;28;20039;-55
2021/01/08 04:10:45;;;;;;;7.03;4.72;;;2.40;94.20;;;;;;4980459;28;20043;-55
2021/01/08 04:13:11;;;;;;;7.53;4.93;;;2.40;94.20;;;;;;4993243;28;20113;-55
2021/01/08 04:15:37;;;;;;;7.63;4.95;;;2.40;94.10;;;;;;4993983;28;20073;-55
2021/01/08 04:18:02;;;;;;;7.78;4.82;;;2.40;94.20;;;;;;4980556;28;20041;-55
2021/01/08 04:20:28;;;;;;;9.48;5.55;;;2.40;94.20;;;;;;4983914;28;20104;-55
2021/01/08 04:22:53;;;;;;;7.78;4.88;;;2.30;94.10;;;;;;4978221;28;20058;-55
2021/01/08 04:25:19;;;;;;;7.97;5.10;;;2.30;94.20;;;;;;4982839;28;20419;-53
2021/01/08 04:27:44;;;;;;;9.85;4.80;;;2.30;94.20;;;;;;4974773;28;20039;-55
2021/01/08 04:30:11;;;;;;;7.05;4.80;;;2.30;94.20;;;;;;4981396;28;20046;-55
2021/01/08 04:32:37;;;;;;;7.82;4.38;;;2.30;94.20;;;;;;4972182;28;20139;-55
2021/01/08 04:35:03;;;;;;;7.45;4.90;;;2.30;94.20;;;;;;4988821;28;20039;-55
2021/01/08 04:37:29;;;;;;;6.43;4.32;;;2.30;94.20;;;;;;4975191;28;20027;-55
2021/01/08 04:39:54;;;;;;;6.57;4.50;;;2.30;94.20;;;;;;4987962;28;20050;-56
2021/01/08 04:42:20;;;;;;;9.02;4.65;;;2.30;94.50;;;;;;4981654;28;20034;-55
2021/01/08 04:44:46;;;;;;;7.30;4.82;;;2.20;94.30;;;;;;4975189;28;20039;-55
2021/01/08 04:47:14;;;;;;;10.00;4.80;;;2.20;94.30;;;;;;4979468;28;20096;-57
2021/01/08 04:49:40;;;;;;;18.35;5.35;;;2.30;94.30;;;;;;4984682;28;20061;-54
2021/01/08 04:52:11;;;;;;;34.70;5.72;;;2.30;94.30;;;;;;4980319;28;20046;-55
2021/01/08 04:54:38;;;;;;;9.55;4.97;;;2.30;94.30;;;;;;4978784;28;20061;-56
2021/01/08 04:57:11;;;;;;;11.82;5.15;;;2.30;94.30;;;;;;4948171;28;20078;-55
2021/01/08 04:59:36;;;;;;;31.02;5.63;;;2.30;94.30;;;;;;4984823;28;20043;-56
2021/01/08 05:02:03;;;;;;;20.27;5.07;;;2.30;94.20;;;;;;4980063;28;20050;-55
2021/01/08 05:04:29;;;;;;;33.00;5.00;;;2.30;94.20;;;;;;4966143;28;20038;-50
2021/01/08 05:06:55;;;;;;;28.85;5.45;;;2.30;94.20;;;;;;4979955;28;20047;-49
2021/01/08 05:09:21;;;;;;;28.15;5.47;;;2.30;94.20;;;;;;4987979;28;20086;-52
2021/01/08 05:11:47;;;;;;;30.17;5.88;;;2.30;94.20;;;;;;4980944;28;20047;-52
2021/01/08 05:14:15;;;;;;;12.88;4.90;;;2.40;94.30;;;;;;4977103;28;20058;-56
2021/01/08 05:16:41;;;;;;;31.17;5.72;;;2.40;94.20;;;;;;4958945;28;20603;-51
2021/01/08 05:19:08;;;;;;;45.45;5.97;;;2.30;94.10;;;;;;4989552;28;20049;-52
2021/01/08 05:21:34;;;;;;;38.90;5.38;;;2.30;94.20;;;;;;4991722;28;20162;-49
2021/01/08 05:24:02;;;;;;;51.63;5.88;;;2.30;94.20;;;;;;4978232;28;20073;-55
2021/01/08 05:26:29;;;;;;;33.78;5.47;;;2.30;94.20;;;;;;4974380;28;20043;-55
2021/01/08 05:29:00;;;;;;;66.38;6.88;;;2.30;94.50;;;;;;4987140;28;20433;-54
2021/01/08 05:31:30;;;;;;;50.58;5.35;;;2.30;94.30;;;;;;4975528;28;20073;-54
2021/01/08 05:33:56;;;;;;;26.92;5.18;;;2.20;94.20;;;;;;4977003;28;20039;-49
2021/01/08 05:36:27;;;;;;;28.27;4.90;;;2.30;94.30;;;;;;4988414;28;20166;-51
2021/01/08 05:38:59;;;;;;;27.50;5.22;;;2.30;94.30;;;;;;4965329;28;20072;-51
2021/01/08 05:41:31;;;;;;;15.80;4.40;;;2.20;94.30;;;;;;4977555;28;20145;-52
2021/01/08 05:43:59;;;;;;;38.83;5.00;;;2.20;94.30;;;;;;4973984;28;20415;-51
2021/01/08 05:46:34;;;;;;;15.48;4.63;;;2.30;94.30;;;;;;4975984;28;20040;-53
2021/01/08 05:49:02;;;;;;;25.00;4.90;;;2.20;94.20;;;;;;4975897;28;20049;-49
2021/01/08 05:51:36;;;;;;;10.27;4.28;;;2.20;94.30;;;;;;4974084;28;20065;-53
2021/01/08 05:54:03;;;;;;;9.23;4.40;;;2.20;94.30;;;;;;4973451;28;20042;-49
2021/01/08 05:56:34;;;;;;;9.75;4.20;;;2.20;94.40;;;;;;4976582;28;20093;-52
2021/01/08 05:59:10;;;;;;;10.07;4.90;;;2.30;94.40;;;;;;4975491;28;20043;-52
2021/01/08 06:01:39;;;;;;;15.05;4.10;;;2.20;94.30;;;;;;4976502;28;20097;-50
2021/01/08 06:04:07;;;;;;;12.52;4.55;;;2.20;94.30;;;;;;4976527;28;20043;-56
2021/01/08 06:06:40;;;;;;;12.32;4.38;;;2.20;94.30;;;;;;4986527;28;20038;-56
2021/01/08 06:09:06;;;;;;;9.05;4.25;;;2.20;94.30;;;;;;4987289;28;20115;-55
2021/01/08 06:11:35;;;;;;;7.53;3.90;;;2.20;94.20;;;;;;4987869;28;20065;-56
2021/01/08 06:14:03;;;;;;;6.78;3.95;;;2.20;94.30;;;;;;4987540;28;20046;-49
2021/01/08 06:16:46;;;;;;;7.82;4.30;;;2.20;94.20;;;;;;4972887;28;20038;-50
2021/01/08 06:19:15;;;;;;;;;;;2.20;94.30;;;;;;4990340;28;20121;-53
2021/01/08 06:21:44;;;;;;;7.35;4.28;;;2.20;94.30;;;;;;4982422;28;20078;-55
2021/01/08 06:24:24;;;;;;;6.30;4.07;;;2.10;94.20;;;;;;4982844;28;20129;-55
2021/01/08 06:26:50;;;;;;;7.55;4.15;;;2.20;94.30;;;;;;4980672;28;20475;-51
2021/01/08 06:29:23;;;;;;;6.18;4.00;;;2.20;94.20;;;;;;4977189;28;20046;-54
2021/01/08 06:31:53;;;;;;;6.57;4.10;;;2.20;94.20;;;;;;4986242;28;20104;-55
2021/01/08 06:34:29;;;;;;;7.05;4.03;;;2.20;94.20;;;;;;4983818;28;20049;-51
2021/01/08 06:37:07;;;;;;;6.30;3.83;;;2.10;94.10;;;;;;4981600;28;20039;-52
2021/01/08 06:39:37;;;;;;;5.70;3.70;;;2.10;94.20;;;;;;4987666;28;20050;-53
2021/01/08 06:42:05;;;;;;;7.57;3.88;;;2.10;94.20;;;;;;4967399;28;20076;-54
2021/01/08 06:44:32;;;;;;;6.32;3.83;;;2.00;94.20;;;;;;4980192;28;20050;-53
2021/01/08 06:47:00;;;;;;;6.20;3.70;;;2.00;94.20;;;;;;4951953;28;20062;-54
2021/01/08 06:49:50;;;;;;;6.18;3.58;;;2.00;94.20;;;;;;4976658;28;20458;-56
2021/01/08 06:52:16;;;;;;;6.63;3.90;;;2.00;94.30;;;;;;4984107;28;20046;-53
2021/01/08 06:54:43;;;;;;;5.13;3.83;;;2.00;94.30;;;;;;4968425;28;20503;-53
2021/01/08 06:57:33;;;;;;;5.50;3.90;;;2.00;94.30;;;;;;4981826;28;20098;-53
2021/01/08 07:00:05;;;;;;;5.40;3.60;;;2.10;94.30;;;;;;4971058;28;20096;-55
2021/01/08 07:02:32;;;;;;;5.55;3.88;;;2.00;94.30;;;;;;4983754;28;20039;-54
2021/01/08 07:05:00;;;;;;;5.95;3.90;;;2.10;94.30;;;;;;4971072;28;20049;-49
2021/01/08 07:07:29;;;;;;;5.78;3.90;;;2.10;94.30;;;;;;4952978;28;20129;-54
2021/01/08 07:09:55;;;;;;;7.15;3.80;;;2.10;94.30;;;;;;4960882;28;20050;-55
2021/01/08 07:12:26;;;;;;;8.32;4.03;;;2.10;94.30;;;;;;4967109;28;20058;-52
2021/01/08 07:14:52;;;;;;;6.22;4.00;;;2.10;94.30;;;;;;4982700;28;20046;-53
2021/01/08 07:17:31;;;;;;;7.53;4.05;;;2.10;94.40;;;;;;4982977;28;20052;-51
2021/01/08 07:20:00;;;;;;;6.20;4.20;;;2.10;94.50;;;;;;4977515;28;20046;-55
2021/01/08 07:22:38;;;;;;;5.78;4.05;;;2.20;94.50;;;;;;4959244;28;20034;-55
2021/01/08 07:25:11;;;;;;;6.93;4.25;;;2.20;94.50;;;;;;4984731;28;20519;-55
2021/01/08 07:27:40;;;;;;;6.03;3.97;;;2.20;94.40;;;;;;4983267;28;20053;-55
2021/01/08 07:30:08;;;;;;;7.43;3.95;;;2.20;94.40;;;;;;4988047;28;20450;-55
2021/01/08 07:32:54;;;;;;;5.78;3.95;;;2.20;94.40;;;;;;4985949;28;20042;-56
2021/01/08 07:35:25;;;;;;;5.35;3.85;;;2.20;94.40;;;;;;4992340;28;20034;-56
2021/01/08 07:37:59;;;;;;;7.32;4.25;;;2.30;94.40;;;;;;4973184;28;20451;-54
2021/01/08 07:40:55;;;;;;;5.40;3.70;;;2.20;94.40;;;;;;4991592;28;20050;-53
2021/01/08 07:43:32;;;;;;;5.68;4.00;;;2.20;94.40;;;;;;4992288;28;20046;-49
2021/01/08 07:45:59;;;;;;;7.15;4.30;;;2.20;94.40;;;;;;4989591;28;20035;-52
2021/01/08 07:48:28;;;;;;;6.60;4.15;;;2.20;94.30;;;;;;4990471;28;20121;-56
2021/01/08 07:50:57;;;;;;;6.70;4.50;;;2.20;94.40;;;;;;4976582;28;20487;-50
2021/01/08 07:53:41;;;;;;;8.05;4.70;;;2.20;94.40;;;;;;4992575;28;20513;-53
2021/01/08 07:56:20;;;;;;;7.13;4.65;;;2.20;94.40;;;;;;4990651;28;20034;-50
2021/01/08 07:58:57;;;;;;;9.43;4.65;;;2.20;94.40;;;;;;4991538;28;20101;-53
2021/01/08 08:01:51;;;;;;;7.20;4.63;;;2.20;94.40;;;;;;4993908;28;20046;-52
2021/01/08 08:04:22;;;;;;;9.32;4.95;;;2.20;94.50;;;;;;4986483;28;20053;-54
2021/01/08 08:06:50;;;;;;;7.75;4.95;;;2.20;94.40;;;;;;4990561;28;20096;-53
2021/01/08 08:09:17;;;;;;;7.53;5.18;;;2.20;94.50;;;;;;4972218;28;20047;-53
2021/01/08 08:11:43;;;;;;;9.18;4.85;;;2.20;94.60;;;;;;4991225;28;20538;-53
2021/01/08 08:14:17;;;;;;;7.95;4.72;;;2.20;94.50;;;;;;4990314;28;20485;-54
2021/01/08 08:16:43;;;;;;;7.32;4.88;;;2.20;94.50;;;;;;4981312;28;20137;-52
2021/01/08 08:19:10;;;;;;;7.70;4.55;;;2.30;94.50;;;;;;4988314;28;20100;-55
2021/01/08 08:21:37;;;;;;;7.63;4.97;;;2.30;94.50;;;;;;4985241;28;20056;-56
2021/01/08 08:24:05;;;;;;;7.15;4.75;;;2.30;94.60;;;;;;4968398;28;20050;-55
2021/01/08 08:26:33;;;;;;;7.45;4.53;;;2.40;94.50;;;;;;4975335;28;20050;-56
2021/01/08 08:29:05;;;;;;;8.23;4.68;;;2.30;94.50;;;;;;4991129;28;20140;-57
2021/01/08 08:31:33;;;;;;;7.45;4.80;;;2.40;94.50;;;;;;4979819;28;20495;-53
2021/01/08 08:34:01;;;;;;;7.18;4.88;;;2.40;94.40;;;;;;4992026;28;20042;-56
2021/01/08 08:36:29;;;;;;;7.60;4.53;;;2.40;94.50;;;;;;4995489;28;20038;-54
2021/01/08 08:39:07;;;;;;;8.10;4.80;;;2.40;94.50;;;;;;5005061;28;20046;-54
2021/01/08 08:41:36;;;;;;;7.57;4.60;;;2.40;94.50;;;;;;4992569;28;20125;-57
2021/01/08 08:44:03;;;;;;;7.80;4.82;;;2.50;94.40;;;;;;4991539;28;20513;-50
2021/01/08 08:46:48;;;;;;;7.55;4.70;;;2.50;94.40;;;;;;4967264;28;20058;-56
2021/01/08 08:49:17;;;;;;;6.25;4.28;;;2.50;94.40;;;;;;4964594;28;20470;-57
2021/01/08 08:51:47;;;;;;;6.97;4.55;;;2.50;94.60;;;;;;4975228;28;20513;-56
2021/01/08 08:54:14;;;;;;;6.88;4.72;;;2.50;94.40;;;;;;4974587;28;20039;-57
2021/01/08 08:56:47;;;;;;;7.47;4.47;;;2.50;94.40;;;;;;4985401;28;20042;-54
2021/01/08 08:59:33;;;;;;;6.47;4.28;;;2.50;94.40;;;;;;4992954;28;20042;-56
2021/01/08 09:02:00;;;;;;;8.75;4.60;;;2.50;94.40;;;;;;4980513;28;20065;-56
2021/01/08 09:04:26;;;;;;;6.30;4.25;;;2.50;94.40;;;;;;4979545;28;20034;-52
2021/01/08 09:06:57;;;;;;;7.55;4.80;;;2.50;94.40;;;;;;4993648;28;20112;-57
2021/01/08 09:09:26;;;;;;;7.37;4.90;;;2.50;94.40;;;;;;4979720;28;20495;-57
2021/01/08 09:12:19;;;;;;;7.03;4.57;;;2.50;94.30;;;;;;4972555;28;20311;-57
2021/01/08 09:14:49;;;;;;;6.40;4.30;;;2.50;94.40;;;;;;4989103;28;20038;-57
2021/01/08 09:17:19;;;;;;;8.10;4.50;;;2.50;94.30;;;;;;4982628;28;20043;-57
2021/01/08 09:19:55;;;;;;;6.60;4.55;;;2.50;94.40;;;;;;4984154;28;20089;-56
2021/01/08 09:22:29;;;;;;;6.15;4.25;;;2.60;94.40;;;;;;4974234;28;20479;-56
2021/01/08 09:25:00;;;;;;;6.53;4.35;;;2.60;94.40;;;;;;4970364;28;20118;-56
2021/01/08 09:27:26;;;;;;;7.22;4.50;;;2.60;94.40;;;;;;4987767;28;20062;-53
2021/01/08 09:29:52;;;;;;;7.93;4.35;;;2.60;94.30;;;;;;4992529;28;20112;-53
2021/01/08 09:32:32;;;;;;;6.07;4.18;;;2.70;94.30;;;;;;4972133;28;20042;-53
2021/01/08 09:35:02;;;;;;;6.55;4.20;;;2.70;94.30;;;;;;4974409;28;20050;-53
2021/01/08 09:37:47;;;;;;;8.68;4.65;;;2.70;94.30;;;;;;4979702;28;20038;-53
2021/01/08 09:40:15;;;;;;;6.60;4.32;;;2.70;94.30;;;;;;4977917;28;20042;-56
2021/01/08 09:42:42;;;;;;;10.63;4.70;;;2.70;94.30;;;;;;4983217;28;20050;-53
2021/01/08 09:45:25;;;;;;;7.50;4.70;;;2.70;94.30;;;;;;4987512;28;20038;-54
2021/01/08 09:47:53;;;;;;;7.50;4.10;;;2.80;94.30;;;;;;4975944;28;20573;-54
2021/01/08 09:50:30;;;;;;;7.95;4.50;;;2.80;94.30;;;;;;4989741;28;20046;-51
2021/01/08 09:53:01;;;;;;;7.05;4.35;;;2.80;94.30;;;;;;4973975;28;20133;-54
2021/01/08 09:55:30;;;;;;;6.57;4.25;;;2.80;94.30;;;;;;4974998;28;20051;-55
2021/01/08 09:58:01;;;;;;;9.25;4.55;;;2.90;94.30;;;;;;4992945;28;20490;-56
2021/01/08 10:00:35;;;;;;;8.10;4.20;;;2.90;94.30;;;;;;4994508;28;20051;-56
2021/01/08 10:03:03;;;;;;;8.57;4.82;;;2.80;94.20;;;;;;4992260;28;20074;-53
2021/01/08 10:05:34;;;;;;;8.80;4.95;;;2.90;94.40;;;;;;4977603;28;20566;-52
2021/01/08 10:08:01;;;;;;;8.70;5.00;;;2.90;94.30;;;;;;4980868;28;20042;-57
2021/01/08 10:10:27;;;;;;;8.07;4.75;;;2.90;94.20;;;;;;4945113;28;20042;-56
2021/01/08 10:12:58;;;;;;;7.75;5.03;;;2.90;94.30;;;;;;4979023;28;20055;-57
2021/01/08 10:15:43;;;;;;;8.25;4.93;;;2.90;94.20;;;;;;4971615;28;20093;-62
2021/01/08 10:18:16;;;;;;;10.48;5.05;;;3.00;94.40;;;;;;4980738;28;20133;-56
2021/01/08 10:20:50;;;;;;;9.43;5.07;;;3.00;94.30;;;;;;4978131;28;20458;-53
2021/01/08 10:23:22;;;;;;;7.75;4.90;;;3.10;94.30;;;;;;4972691;28;20062;-53
2021/01/08 10:25:48;;;;;;;7.65;4.50;;;3.10;94.30;;;;;;4987273;28;20093;-56
2021/01/08 10:28:16;;;;;;;9.75;5.38;;;3.10;94.20;;;;;;4986263;28;20122;-54
2021/01/08 10:30:45;;;;;;;12.10;6.72;;;3.20;94.20;;;;;;4985110;28;20047;-52
2021/01/08 10:33:11;;;;;;;25.20;14.50;;;3.30;94.10;;;;;;4978072;28;20042;-52
2021/01/08 10:35:38;;;;;;;14.52;9.48;;;3.30;94.10;;;;;;4985170;28;20050;-51
2021/01/08 10:38:04;;;;;;;8.35;5.43;;;3.30;94.10;;;;;;4972591;28;20039;-53
2021/01/08 10:40:30;;;;;;;12.40;7.88;;;3.40;94.20;;;;;;4992052;28;20038;-56
2021/01/08 10:42:57;;;;;;;10.48;6.05;;;3.40;94.10;;;;;;4980424;28;20047;-56
2021/01/08 10:45:23;;;;;;;10.25;6.82;;;3.40;93.90;;;;;;4986566;28;20454;-54
2021/01/08 10:47:49;;;;;;;8.88;5.75;;;3.40;94.00;;;;;;4974446;28;20084;-55
2021/01/08 10:50:15;;;;;;;7.22;4.53;;;3.50;94.00;;;;;;4983333;28;20042;-55
2021/01/08 10:52:44;;;;;;;8.82;5.13;;;3.50;94.00;;;;;;4972816;28;20042;-52
2021/01/08 10:55:11;;;;;;;7.60;4.68;;;3.50;94.00;;;;;;4949406;28;20058;-56
2021/01/08 10:57:37;;;;;;;9.98;4.93;;;3.50;94.10;;;;;;4974555;28;20134;-56
2021/01/08 11:00:06;;;;;;;7.80;4.80;;;3.60;93.90;;;;;;4991081;28;20156;-56
2021/01/08 11:02:34;;;;;;;14.13;9.50;;;3.60;93.90;;;;;;4973411;28;20068;-56
2021/01/08 11:05:04;;;;;;;7.68;4.93;;;3.60;93.90;;;;;;4958460;28;20492;-57
2021/01/08 11:07:33;;;;;;;10.98;6.22;;;3.60;93.80;;;;;;4990504;28;20118;-57
2021/01/08 11:10:00;;;;;;;10.05;6.88;;;3.60;93.70;;;;;;4958020;28;20038;-54
2021/01/08 11:12:27;;;;;;;9.50;5.55;;;3.60;93.70;;;;;;4990125;28;20097;-52
2021/01/08 11:14:55;;;;;;;12.25;8.90;;;3.60;93.50;;;;;;4991709;28;20504;-53
2021/01/08 11:17:21;;;;;;;7.90;4.78;;;3.60;93.40;;;;;;4990010;28;20074;-53
2021/01/08 11:19:47;;;;;;;9.20;5.82;;;3.60;93.20;;;;;;4972990;28;20043;-54
2021/01/08 11:22:14;;;;;;;8.23;5.75;;;3.60;93.20;;;;;;4961422;28;20462;-52
2021/01/08 11:24:40;;;;;;;7.78;5.38;;;3.70;93.40;;;;;;4985765;28;20507;-55
2021/01/08 11:27:06;;;;;;;9.73;4.90;;;3.70;93.40;;;;;;4973017;28;20086;-52
2021/01/08 11:29:33;;;;;;;9.23;4.65;;;3.70;93.50;;;;;;4974416;28;20070;-53
2021/01/08 11:32:00;;;;;;;8.60;5.38;;;3.80;93.50;;;;;;4973510;28;20133;-53
2021/01/08 11:34:26;;;;;;;8.75;5.05;;;3.80;93.60;;;;;;4990772;28;20122;-53
2021/01/08 11:36:56;;;;;;;7.30;4.60;;;3.80;93.40;;;;;;4990253;28;20038;-53
2021/01/08 11:39:24;;;;;;;7.63;4.78;;;3.80;93.20;;;;;;4958560;28;20053;-55
2021/01/08 11:41:55;;;;;;;8.20;4.85;;;3.80;93.00;;;;;;4986707;28;20057;-50
2021/01/08 11:44:23;;;;;;;8.48;5.03;;;3.80;93.10;;;;;;4988393;28;20042;-56
2021/01/08 11:46:50;;;;;;;9.60;5.00;;;3.90;93.30;;;;;;4989603;28;20117;-57
2021/01/08 11:49:19;;;;;;;8.63;4.47;;;3.90;93.20;;;;;;4989078;28;20039;-57
2021/01/08 11:51:46;;;;;;;7.55;4.90;;;3.90;93.20;;;;;;4984536;28;20065;-57
2021/01/08 11:54:12;;;;;;;7.22;4.90;;;3.90;93.00;;;;;;4930138;28;20118;-56
2021/01/08 11:56:38;;;;;;;7.03;4.75;;;3.90;93.10;;;;;;4990743;28;20042;-53
2021/01/08 11:59:04;;;;;;;6.25;3.97;;;3.90;93.10;;;;;;4966897;28;20145;-54
2021/01/08 12:01:31;;;;;;;6.63;4.75;;;3.80;92.90;;;;;;4987993;28;20133;-57
2021/01/08 12:03:58;;;;;;;8.90;4.75;;;3.80;93.00;;;;;;4988224;28;20109;-55
2021/01/08 12:06:28;;;;;;;8.93;4.03;;;3.80;93.20;;;;;;4988453;28;20073;-54
2021/01/08 12:08:55;;;;;;;6.13;3.70;;;3.80;93.20;;;;;;4986116;28;20411;-54
2021/01/08 12:11:21;;;;;;;6.75;3.80;;;3.80;93.20;;;;;;4986373;28;20046;-56
2021/01/08 12:13:48;;;;;;;6.55;4.00;;;3.90;93.30;;;;;;4990060;28;20483;-56
2021/01/08 12:16:14;;;;;;;7.28;4.00;;;3.90;93.30;;;;;;4956673;28;20038;-57
2021/01/08 12:18:40;;;;;;;6.68;3.67;;;3.90;93.20;;;;;;4990525;28;20454;-58
2021/01/08 12:21:07;;;;;;;6.88;3.72;;;4.00;93.30;;;;;;4990849;28;20069;-57
2021/01/08 12:23:33;;;;;;;6.18;4.30;;;4.00;93.20;;;;;;4959033;28;20447;-57
2021/01/08 12:25:59;;;;;;;7.22;3.80;;;4.00;93.00;;;;;;4992194;28;20048;-57
2021/01/08 12:28:25;;;;;;;6.72;3.75;;;4.00;92.90;;;;;;4987940;28;20042;-55
2021/01/08 12:30:51;;;;;;;6.03;3.35;;;4.00;92.90;;;;;;4993427;28;20112;-55
2021/01/08 12:33:17;;;;;;;6.00;3.55;;;4.10;92.80;;;;;;4989236;28;20054;-55
2021/01/08 12:35:43;;;;;;;6.65;3.83;;;4.10;92.70;;;;;;4991393;28;20042;-54
2021/01/08 12:38:09;;;;;;;7.18;3.58;;;4.20;92.70;;;;;;4974312;28;20085;-56
2021/01/08 12:40:34;;;;;;;5.78;3.75;;;4.20;92.70;;;;;;4991276;28;20046;-54
2021/01/08 12:43:00;;;;;;;5.93;3.65;;;4.20;92.40;;;;;;4990888;28;20510;-57
2021/01/08 12:45:26;;;;;;;4.95;3.45;;;4.20;92.50;;;;;;4992134;28;20058;-56
2021/01/08 12:47:52;;;;;;;5.07;3.25;;;4.20;92.50;;;;;;4958920;28;20072;-55
2021/01/08 12:50:20;;;;;;;6.35;4.18;;;4.30;92.20;;;;;;4990007;28;20046;-52
2021/01/08 12:52:46;;;;;;;6.35;3.47;;;4.30;92.40;;;;;;4992153;28;20057;-56
2021/01/08 12:55:13;;;;;;;6.47;3.60;;;4.30;92.50;;;;;;4991932;28;20431;-55
2021/01/08 12:57:39;;;;;;;6.30;3.53;;;4.30;92.30;;;;;;4992793;28;20101;-56
2021/01/08 13:00:07;;;;;;;5.60;3.38;;;4.30;92.40;;;;;;4993012;28;20045;-54
2021/01/08 13:02:32;;;;;;;5.88;3.88;;;4.40;92.20;;;;;;4982178;28;20047;-56